Kaleen Mc Allister — WDB3847 — position and weather

sailwx.info

Track history (hours):
 
Tides and Currents Weather Stations Pressure Air Temp Water Temp Dewpoint Dewpoint Depression Visibility Wind Speed Wind Dir Waves Ship Positions

Kaleen Mc Allister

Owner: MC ALLISTER TOWING & TRANSPORTATION INC, NEW YORK, NY. More information available from US FCC via Universal Licensing System and Coast Guard Vessel Documentation Center.

Last reported at 2014-Dec-23 04:33 UTC. Time now 2014-Dec-23 05:10 UTC.
Position N 39°16' W 076°35'.

Length 20 m; draft 4 m.

Type: Towing. MMSI: 366891960.

Date/timePositionNaut miles runAvg speedWind from/ knotsBaromVisibWave heightAir tempDewpointWater temp
2014-Dec-23 04:33N 39°16' W 076°35'0 0.0
2014-Dec-23 03:33N 39°16' W 076°35'0 0.0
2014-Dec-23 02:33N 39°16' W 076°35'0 0.0
2014-Dec-23 01:21N 39°16' W 076°35'0 0.0
2014-Dec-23 00:33N 39°16' W 076°35'2 2.0
2014-Dec-22 23:33N 39°15' W 076°33'1 0.7
2014-Dec-22 22:33N 39°14' W 076°33'2 2.4
2014-Dec-22 21:33N 39°16' W 076°35'0 0.0
2014-Dec-22 20:33N 39°16' W 076°35'0 0.0
2014-Dec-22 19:31N 39°16' W 076°35'0 0.0
2014-Dec-22 18:33N 39°16' W 076°35'0 0.0
2014-Dec-22 17:33N 39°16' W 076°35'0 0.0
2014-Dec-22 16:33N 39°16' W 076°35'0 0.0
2014-Dec-22 15:33N 39°16' W 076°35'0 0.0
2014-Dec-22 14:33N 39°16' W 076°35'0 0.0
2014-Dec-22 13:33N 39°16' W 076°35'0 0.0
2014-Dec-22 12:33N 39°16' W 076°35'0 0.0
2014-Dec-22 11:33N 39°16' W 076°35'2 1.7
2014-Dec-22 10:33N 39°15' W 076°34'1 0.7
2014-Dec-22 09:33N 39°15' W 076°33'0 0.0
2014-Dec-22 08:33N 39°15' W 076°33'0 0.0
2014-Dec-22 07:33N 39°15' W 076°33'1 0.5
2014-Dec-22 06:33N 39°15' W 076°34'1 1.3
2014-Dec-22 05:33N 39°16' W 076°35'0 0.2
2014-Dec-22 04:33N 39°16' W 076°35'0 0.0
2014-Dec-22 03:33N 39°16' W 076°35'0 0.0
2014-Dec-22 02:33N 39°16' W 076°35'0 0.0
2014-Dec-22 01:33N 39°16' W 076°35'0 0.0
2014-Dec-22 00:33N 39°16' W 076°35'0 0.0
2014-Dec-21 23:33N 39°16' W 076°35'1 1.2
2014-Dec-21 22:33N 39°15' W 076°35'2 1.6
2014-Dec-21 21:33N 39°14' W 076°33'2 2.5
2014-Dec-21 20:33N 39°16' W 076°35'0 0.0
2014-Dec-21 19:33N 39°16' W 076°35'0 0.0
2014-Dec-21 18:33N 39°16' W 076°35'0 0.0
2014-Dec-21 17:33N 39°16' W 076°35'0 0.0
2014-Dec-21 16:33N 39°16' W 076°35'0 0.0
2014-Dec-21 15:33N 39°16' W 076°35'0 0.0
2014-Dec-21 14:33N 39°16' W 076°35'0 0.0
2014-Dec-21 13:33N 39°16' W 076°35'0 0.0
2014-Dec-21 12:33N 39°16' W 076°35'0 0.0
2014-Dec-21 11:33N 39°16' W 076°35'0 0.0
2014-Dec-21 10:33N 39°16' W 076°35'0 0.0
2014-Dec-21 09:33N 39°16' W 076°35'0 0.0
2014-Dec-21 08:33N 39°16' W 076°35'0 0.0
2014-Dec-21 07:33N 39°16' W 076°35'0 0.0
2014-Dec-21 06:33N 39°16' W 076°35'1 1.1
2014-Dec-21 05:33N 39°15' W 076°35'1 1.1
2014-Dec-21 04:33N 39°16' W 076°35'0 0.0
2014-Dec-21 03:33N 39°16' W 076°35'0 0.0
2014-Dec-21 02:33N 39°16' W 076°35'0 0.0
2014-Dec-21 01:33N 39°16' W 076°35'0 0.0
2014-Dec-21 00:33N 39°16' W 076°35'0 0.0
2014-Dec-20 23:33N 39°16' W 076°35'0 0.0
2014-Dec-20 22:33N 39°16' W 076°35'0 0.0
2014-Dec-20 21:33N 39°16' W 076°35'0 0.0
2014-Dec-20 20:33N 39°16' W 076°35'0 0.0
2014-Dec-20 19:33N 39°16' W 076°35'1 0.9
2014-Dec-20 18:33N 39°15' W 076°34'2 1.8
2014-Dec-20 17:27N 39°15' W 076°32'0 0.1
2014-Dec-20 16:33N 39°15' W 076°32'3 2.5
2014-Dec-20 15:33N 39°16' W 076°35'0 0.0
2014-Dec-20 14:33N 39°16' W 076°35'0 0.0
2014-Dec-20 13:33N 39°16' W 076°35'0 0.0
2014-Dec-20 12:33N 39°16' W 076°35'0 0.0
2014-Dec-20 11:33N 39°16' W 076°35'0 0.0
2014-Dec-20 10:33N 39°16' W 076°35'0 0.0
2014-Dec-20 09:33N 39°16' W 076°35'0 0.0
2014-Dec-20 08:34N 39°16' W 076°35'0 0.0
2014-Dec-20 07:33N 39°16' W 076°35'0 0.0
2014-Dec-20 06:33N 39°16' W 076°35'0 0.0
2014-Dec-20 05:33N 39°16' W 076°35'0 0.0
2014-Dec-20 04:33N 39°16' W 076°35'0 0.0
2014-Dec-20 03:33N 39°16' W 076°35'0 0.0
2014-Dec-20 02:33N 39°16' W 076°35'0 0.0
2014-Dec-20 01:33N 39°16' W 076°35'0 0.0
2014-Dec-20 00:33N 39°16' W 076°35'3 3.0
2014-Dec-19 23:32N 39°14' W 076°32'0 0.2
2014-Dec-19 22:33N 39°14' W 076°32'1 1.4
2014-Dec-19 21:33N 39°15' W 076°33'2 1.6
2014-Dec-19 20:33N 39°16' W 076°35'0 0.0
2014-Dec-19 19:34N 39°16' W 076°35'0 0.0
2014-Dec-19 18:33N 39°16' W 076°35'0 0.0
2014-Dec-19 17:33N 39°16' W 076°35'0 0.0
2014-Dec-19 16:33N 39°16' W 076°35'0 0.0
2014-Dec-19 15:33N 39°16' W 076°35'0 0.0
2014-Dec-19 14:33N 39°16' W 076°35'0 0.0
2014-Dec-19 13:33N 39°16' W 076°35'0 0.0
2014-Dec-19 12:33N 39°16' W 076°35'0 0.0
2014-Dec-19 11:33N 39°16' W 076°35'0 0.4
2014-Dec-19 10:33N 39°16' W 076°34'3 3.5
2014-Dec-19 09:33N 39°13' W 076°32'4 3.8
2014-Dec-19 08:33N 39°16' W 076°35'0 0.1
2014-Dec-19 07:33N 39°16' W 076°35'0 0.0
2014-Dec-19 06:33N 39°16' W 076°35'0 0.0
2014-Dec-19 05:33N 39°16' W 076°35'0 0.0
2014-Dec-19 04:33N 39°16' W 076°35'0 0.0
2014-Dec-19 03:33N 39°16' W 076°35'0 0.0
2014-Dec-19 02:33N 39°16' W 076°35'0 0.0
2014-Dec-19 01:33N 39°16' W 076°35'0 0.0
2014-Dec-19 00:33N 39°16' W 076°35'0 0.0
2014-Dec-18 23:33N 39°16' W 076°35'0 0.0
2014-Dec-18 22:33N 39°16' W 076°35'0 0.0
2014-Dec-18 21:33N 39°16' W 076°35'0 0.0
2014-Dec-18 20:33N 39°16' W 076°35'0 0.0
2014-Dec-18 19:33N 39°16' W 076°35'0 0.0
2014-Dec-18 18:33N 39°16' W 076°35'0 0.0
2014-Dec-18 17:33N 39°16' W 076°35'0 0.0
2014-Dec-18 16:33N 39°16' W 076°35'0 0.0
2014-Dec-18 15:33N 39°16' W 076°35'0 0.0
2014-Dec-18 14:33N 39°16' W 076°35'0 0.0
2014-Dec-18 13:33N 39°16' W 076°35'3 3.0
2014-Dec-18 12:33N 39°14' W 076°32'1 1.3
2014-Dec-18 11:33N 39°13' W 076°32'2 1.7
2014-Dec-18 10:33N 39°15' W 076°33'1 0.7
2014-Dec-18 09:33N 39°15' W 076°33'0 0.0
2014-Dec-18 08:33N 39°15' W 076°33'2 2.4
2014-Dec-18 07:33N 39°13' W 076°35'3 2.9
2014-Dec-18 06:33N 39°12' W 076°31'1 1.1
2014-Dec-18 05:33N 39°13' W 076°32'3 2.9
2014-Dec-18 04:33N 39°15' W 076°35'1 1.1
2014-Dec-18 03:33N 39°16' W 076°35'0 0.0
2014-Dec-18 02:33N 39°16' W 076°35'0 0.0
2014-Dec-18 01:33N 39°16' W 076°35'1 0.9
2014-Dec-18 00:34N 39°16' W 076°34'0 0.1
2014-Dec-17 23:33N 39°15' W 076°34'1 1.0
2014-Dec-17 22:33N 39°16' W 076°35'0 0.0
2014-Dec-17 21:33N 39°16' W 076°35'0 0.0
2014-Dec-17 20:34N 39°16' W 076°35'0 0.0
2014-Dec-17 19:33N 39°16' W 076°35'0 0.0
2014-Dec-17 18:33N 39°16' W 076°35'2 1.9
2014-Dec-17 17:33N 39°15' W 076°33'0 0.1
2014-Dec-17 16:33N 39°15' W 076°34'1 0.8
2014-Dec-17 15:33N 39°15' W 076°34'1 0.9
2014-Dec-17 14:33N 39°16' W 076°35'0 0.0
2014-Dec-17 13:33N 39°16' W 076°35'0 0.0
2014-Dec-17 12:33N 39°16' W 076°35'0 0.0
2014-Dec-17 11:33N 39°16' W 076°35'0 0.0
2014-Dec-17 10:33N 39°16' W 076°35'0 0.0
2014-Dec-17 09:33N 39°16' W 076°35'0 0.0
2014-Dec-17 08:33N 39°16' W 076°35'0 0.0
2014-Dec-17 07:33N 39°16' W 076°35'0 0.0
2014-Dec-17 06:33N 39°16' W 076°35'0 0.0
2014-Dec-17 05:33N 39°16' W 076°35'0 0.0
2014-Dec-17 04:33N 39°16' W 076°35'0 0.0
2014-Dec-17 03:33N 39°16' W 076°35'0 0.0
2014-Dec-17 02:13N 39°16' W 076°35'0 0.0
2014-Dec-17 01:33N 39°16' W 076°35'0 0.0
2014-Dec-17 00:33N 39°16' W 076°35'0 0.0
2014-Dec-16 23:33N 39°16' W 076°35'0 0.0
2014-Dec-16 22:23N 39°16' W 076°35'0 0.0
2014-Dec-16 21:32N 39°16' W 076°35'6 6.4
2014-Dec-16 20:32N 39°12' W 076°29'10 9.0
2014-Dec-16 19:25N 39°12' W 076°16'104 5.8
2014-Dec-16 01:27N 39°34' W 074°05'12 9.2
2014-Dec-16 00:07N 39°45' W 073°59'6 9.6
2014-Dec-15 23:31N 39°51' W 073°58'42 9.7
2014-Dec-15 19:10N 40°33' W 074°01'710.8
2014-Dec-15 18:33N 40°39' W 074°04'4 0.8
2014-Dec-15 13:26N 40°38' W 074°10'  
Track history (hours):
 
Tides and Currents Weather Stations Pressure Air Temp Water Temp Dewpoint Dewpoint Depression Visibility Wind Speed Wind Dir Waves Ship Positions

Kaleen Mc Allister

Owner: MC ALLISTER TOWING & TRANSPORTATION INC, NEW YORK, NY. More information available from US FCC via Universal Licensing System and Coast Guard Vessel Documentation Center.

Last reported at 2014-Dec-23 04:33 UTC. Time now 2014-Dec-23 05:10 UTC.
Position N 39°16' W 076°35'.

Length 20 m; draft 4 m.

Type: Towing. MMSI: 366891960.

Date/timePositionNaut miles runAvg speedWind from/ knotsBaromVisibWave heightAir tempDewpointWater temp
2014-Dec-23 04:33N 39°16' W 076°35'0 0.0
2014-Dec-23 03:33N 39°16' W 076°35'0 0.0
2014-Dec-23 02:33N 39°16' W 076°35'0 0.0
2014-Dec-23 01:21N 39°16' W 076°35'0 0.0
2014-Dec-23 00:33N 39°16' W 076°35'2 2.0
2014-Dec-22 23:33N 39°15' W 076°33'1 0.7
2014-Dec-22 22:33N 39°14' W 076°33'2 2.4
2014-Dec-22 21:33N 39°16' W 076°35'0 0.0
2014-Dec-22 20:33N 39°16' W 076°35'0 0.0
2014-Dec-22 19:31N 39°16' W 076°35'0 0.0
2014-Dec-22 18:33N 39°16' W 076°35'0 0.0
2014-Dec-22 17:33N 39°16' W 076°35'0 0.0
2014-Dec-22 16:33N 39°16' W 076°35'0 0.0
2014-Dec-22 15:33N 39°16' W 076°35'0 0.0
2014-Dec-22 14:33N 39°16' W 076°35'0 0.0
2014-Dec-22 13:33N 39°16' W 076°35'0 0.0
2014-Dec-22 12:33N 39°16' W 076°35'0 0.0
2014-Dec-22 11:33N 39°16' W 076°35'2 1.7
2014-Dec-22 10:33N 39°15' W 076°34'1 0.7
2014-Dec-22 09:33N 39°15' W 076°33'0 0.0
2014-Dec-22 08:33N 39°15' W 076°33'0 0.0
2014-Dec-22 07:33N 39°15' W 076°33'1 0.5
2014-Dec-22 06:33N 39°15' W 076°34'1 1.3
2014-Dec-22 05:33N 39°16' W 076°35'0 0.2
2014-Dec-22 04:33N 39°16' W 076°35'0 0.0
2014-Dec-22 03:33N 39°16' W 076°35'0 0.0
2014-Dec-22 02:33N 39°16' W 076°35'0 0.0
2014-Dec-22 01:33N 39°16' W 076°35'0 0.0
2014-Dec-22 00:33N 39°16' W 076°35'0 0.0
2014-Dec-21 23:33N 39°16' W 076°35'1 1.2
2014-Dec-21 22:33N 39°15' W 076°35'2 1.6
2014-Dec-21 21:33N 39°14' W 076°33'2 2.5
2014-Dec-21 20:33N 39°16' W 076°35'0 0.0
2014-Dec-21 19:33N 39°16' W 076°35'0 0.0
2014-Dec-21 18:33N 39°16' W 076°35'0 0.0
2014-Dec-21 17:33N 39°16' W 076°35'0 0.0
2014-Dec-21 16:33N 39°16' W 076°35'0 0.0
2014-Dec-21 15:33N 39°16' W 076°35'0 0.0
2014-Dec-21 14:33N 39°16' W 076°35'0 0.0
2014-Dec-21 13:33N 39°16' W 076°35'0 0.0
2014-Dec-21 12:33N 39°16' W 076°35'0 0.0
2014-Dec-21 11:33N 39°16' W 076°35'0 0.0
2014-Dec-21 10:33N 39°16' W 076°35'0 0.0
2014-Dec-21 09:33N 39°16' W 076°35'0 0.0
2014-Dec-21 08:33N 39°16' W 076°35'0 0.0
2014-Dec-21 07:33N 39°16' W 076°35'0 0.0
2014-Dec-21 06:33N 39°16' W 076°35'1 1.1
2014-Dec-21 05:33N 39°15' W 076°35'1 1.1
2014-Dec-21 04:33N 39°16' W 076°35'0 0.0
2014-Dec-21 03:33N 39°16' W 076°35'0 0.0
2014-Dec-21 02:33N 39°16' W 076°35'0 0.0
2014-Dec-21 01:33N 39°16' W 076°35'0 0.0
2014-Dec-21 00:33N 39°16' W 076°35'0 0.0
2014-Dec-20 23:33N 39°16' W 076°35'0 0.0
2014-Dec-20 22:33N 39°16' W 076°35'0 0.0
2014-Dec-20 21:33N 39°16' W 076°35'0 0.0
2014-Dec-20 20:33N 39°16' W 076°35'0 0.0
2014-Dec-20 19:33N 39°16' W 076°35'1 0.9
2014-Dec-20 18:33N 39°15' W 076°34'2 1.8
2014-Dec-20 17:27N 39°15' W 076°32'0 0.1
2014-Dec-20 16:33N 39°15' W 076°32'3 2.5
2014-Dec-20 15:33N 39°16' W 076°35'0 0.0
2014-Dec-20 14:33N 39°16' W 076°35'0 0.0
2014-Dec-20 13:33N 39°16' W 076°35'0 0.0
2014-Dec-20 12:33N 39°16' W 076°35'0 0.0
2014-Dec-20 11:33N 39°16' W 076°35'0 0.0
2014-Dec-20 10:33N 39°16' W 076°35'0 0.0
2014-Dec-20 09:33N 39°16' W 076°35'0 0.0
2014-Dec-20 08:34N 39°16' W 076°35'0 0.0
2014-Dec-20 07:33N 39°16' W 076°35'0 0.0
2014-Dec-20 06:33N 39°16' W 076°35'0 0.0
2014-Dec-20 05:33N 39°16' W 076°35'0 0.0
2014-Dec-20 04:33N 39°16' W 076°35'0 0.0
2014-Dec-20 03:33N 39°16' W 076°35'0 0.0
2014-Dec-20 02:33N 39°16' W 076°35'0 0.0
2014-Dec-20 01:33N 39°16' W 076°35'0 0.0
2014-Dec-20 00:33N 39°16' W 076°35'3 3.0
2014-Dec-19 23:32N 39°14' W 076°32'0 0.2
2014-Dec-19 22:33N 39°14' W 076°32'1 1.4
2014-Dec-19 21:33N 39°15' W 076°33'2 1.6
2014-Dec-19 20:33N 39°16' W 076°35'0 0.0
2014-Dec-19 19:34N 39°16' W 076°35'0 0.0
2014-Dec-19 18:33N 39°16' W 076°35'0 0.0
2014-Dec-19 17:33N 39°16' W 076°35'0 0.0
2014-Dec-19 16:33N 39°16' W 076°35'0 0.0
2014-Dec-19 15:33N 39°16' W 076°35'0 0.0
2014-Dec-19 14:33N 39°16' W 076°35'0 0.0
2014-Dec-19 13:33N 39°16' W 076°35'0 0.0
2014-Dec-19 12:33N 39°16' W 076°35'0 0.0
2014-Dec-19 11:33N 39°16' W 076°35'0 0.4
2014-Dec-19 10:33N 39°16' W 076°34'3 3.5
2014-Dec-19 09:33N 39°13' W 076°32'4 3.8
2014-Dec-19 08:33N 39°16' W 076°35'0 0.1
2014-Dec-19 07:33N 39°16' W 076°35'0 0.0
2014-Dec-19 06:33N 39°16' W 076°35'0 0.0
2014-Dec-19 05:33N 39°16' W 076°35'0 0.0
2014-Dec-19 04:33N 39°16' W 076°35'0 0.0
2014-Dec-19 03:33N 39°16' W 076°35'0 0.0
2014-Dec-19 02:33N 39°16' W 076°35'0 0.0
2014-Dec-19 01:33N 39°16' W 076°35'0 0.0
2014-Dec-19 00:33N 39°16' W 076°35'0 0.0
2014-Dec-18 23:33N 39°16' W 076°35'0 0.0
2014-Dec-18 22:33N 39°16' W 076°35'0 0.0
2014-Dec-18 21:33N 39°16' W 076°35'0 0.0
2014-Dec-18 20:33N 39°16' W 076°35'0 0.0
2014-Dec-18 19:33N 39°16' W 076°35'0 0.0
2014-Dec-18 18:33N 39°16' W 076°35'0 0.0
2014-Dec-18 17:33N 39°16' W 076°35'0 0.0
2014-Dec-18 16:33N 39°16' W 076°35'0 0.0
2014-Dec-18 15:33N 39°16' W 076°35'0 0.0
2014-Dec-18 14:33N 39°16' W 076°35'0 0.0
2014-Dec-18 13:33N 39°16' W 076°35'3 3.0
2014-Dec-18 12:33N 39°14' W 076°32'1 1.3
2014-Dec-18 11:33N 39°13' W 076°32'2 1.7
2014-Dec-18 10:33N 39°15' W 076°33'1 0.7
2014-Dec-18 09:33N 39°15' W 076°33'0 0.0
2014-Dec-18 08:33N 39°15' W 076°33'2 2.4
2014-Dec-18 07:33N 39°13' W 076°35'3 2.9
2014-Dec-18 06:33N 39°12' W 076°31'1 1.1
2014-Dec-18 05:33N 39°13' W 076°32'3 2.9
2014-Dec-18 04:33N 39°15' W 076°35'1 1.1
2014-Dec-18 03:33N 39°16' W 076°35'0 0.0
2014-Dec-18 02:33N 39°16' W 076°35'0 0.0
2014-Dec-18 01:33N 39°16' W 076°35'1 0.9
2014-Dec-18 00:34N 39°16' W 076°34'0 0.1
2014-Dec-17 23:33N 39°15' W 076°34'1 1.0
2014-Dec-17 22:33N 39°16' W 076°35'0 0.0
2014-Dec-17 21:33N 39°16' W 076°35'0 0.0
2014-Dec-17 20:34N 39°16' W 076°35'0 0.0
2014-Dec-17 19:33N 39°16' W 076°35'0 0.0
2014-Dec-17 18:33N 39°16' W 076°35'2 1.9
2014-Dec-17 17:33N 39°15' W 076°33'0 0.1
2014-Dec-17 16:33N 39°15' W 076°34'1 0.8
2014-Dec-17 15:33N 39°15' W 076°34'1 0.9
2014-Dec-17 14:33N 39°16' W 076°35'0 0.0
2014-Dec-17 13:33N 39°16' W 076°35'0 0.0
2014-Dec-17 12:33N 39°16' W 076°35'0 0.0
2014-Dec-17 11:33N 39°16' W 076°35'0 0.0
2014-Dec-17 10:33N 39°16' W 076°35'0 0.0
2014-Dec-17 09:33N 39°16' W 076°35'0 0.0
2014-Dec-17 08:33N 39°16' W 076°35'0 0.0
2014-Dec-17 07:33N 39°16' W 076°35'0 0.0
2014-Dec-17 06:33N 39°16' W 076°35'0 0.0
2014-Dec-17 05:33N 39°16' W 076°35'0 0.0
2014-Dec-17 04:33N 39°16' W 076°35'0 0.0
2014-Dec-17 03:33N 39°16' W 076°35'0 0.0
2014-Dec-17 02:13N 39°16' W 076°35'0 0.0
2014-Dec-17 01:33N 39°16' W 076°35'0 0.0
2014-Dec-17 00:33N 39°16' W 076°35'0 0.0
2014-Dec-16 23:33N 39°16' W 076°35'0 0.0
2014-Dec-16 22:23N 39°16' W 076°35'0 0.0
2014-Dec-16 21:32N 39°16' W 076°35'6 6.4
2014-Dec-16 20:32N 39°12' W 076°29'10 9.0
2014-Dec-16 19:25N 39°12' W 076°16'104 5.8
2014-Dec-16 01:27N 39°34' W 074°05'12 9.2
2014-Dec-16 00:07N 39°45' W 073°59'6 9.6
2014-Dec-15 23:31N 39°51' W 073°58'42 9.7
2014-Dec-15 19:10N 40°33' W 074°01'710.8
2014-Dec-15 18:33N 40°39' W 074°04'4 0.8
2014-Dec-15 13:26N 40°38' W 074°10'  

Dump ship's entire track history